Time;durP1;ratioP1;P1;durP2;ratioP2;P2;SDS_P1;SDS_P2;PMS_P1;PMS_P2;Temp;Humidity;BMP_temperature;BMP_pressure;BME280_temperature;BME280_humidity;BME280_pressure;Samples;Min_cycle;Max_cycle;Signal;HPM_P1;HPM_P2
2023/04/12 00:00:43;;;;;;;3.70;2.90;;;8.20;99.90;;;;;;5036077;28;20413;-43
2023/04/12 00:03:10;;;;;;;9.40;3.53;;;7.60;99.90;;;;;;5035942;28;20420;-43
2023/04/12 00:05:37;;;;;;;6.57;2.87;;;8.00;99.90;;;;;;5035704;28;20444;-44
2023/04/12 00:08:05;;;;;;;9.33;5.90;;;7.80;99.90;;;;;;5035578;28;20600;-44
2023/04/12 00:10:31;;;;;;;10.10;5.37;;;8.00;99.90;;;;;;5035891;28;20410;-42
2023/04/12 00:12:59;;;;;;;5.10;3.37;;;7.90;99.90;;;;;;5035869;28;20443;-43
2023/04/12 00:15:27;;;;;;;4.37;2.80;;;8.00;99.90;;;;;;5035768;28;20835;-43
2023/04/12 00:17:53;;;;;;;3.80;2.90;;;8.00;99.90;;;;;;5035587;28;20462;-40
2023/04/12 00:20:20;;;;;;;5.50;3.10;;;7.90;99.90;;;;;;5036068;28;20885;-43
2023/04/12 00:22:47;;;;;;;6.33;2.60;;;7.70;99.90;;;;;;5035604;28;20432;-42
2023/04/12 00:25:13;;;;;;;5.27;2.37;;;7.90;99.90;;;;;;5035986;28;20445;-43
2023/04/12 00:27:40;;;;;;;6.30;3.00;;;7.80;99.90;;;;;;5035574;28;20959;-42
2023/04/12 00:30:09;;;;;;;6.73;3.13;;;7.90;99.90;;;;;;5034012;28;20440;-42
2023/04/12 00:32:36;;;;;;;3.70;2.20;;;7.80;99.90;;;;;;5035781;28;20435;-42
2023/04/12 00:35:03;;;;;;;4.53;2.80;;;7.70;99.90;;;;;;5035884;28;20952;-42
2023/04/12 00:37:29;;;;;;;4.43;2.73;;;7.80;99.90;;;;;;5035204;28;20459;-43
2023/04/12 00:39:56;;;;;;;7.43;2.93;;;7.90;99.90;;;;;;5035130;28;20552;-42
2023/04/12 00:42:24;;;;;;;6.93;3.20;;;7.80;99.90;;;;;;5034009;28;20455;-42
2023/04/12 00:44:51;;;;;;;4.37;3.20;;;7.60;99.90;;;;;;5035247;28;20517;-42
2023/04/12 00:47:19;;;;;;;5.50;3.30;;;7.80;99.90;;;;;;5035182;28;20426;-43
2023/04/12 00:49:46;;;;;;;5.30;2.43;;;7.80;99.90;;;;;;5033464;28;20477;-43
2023/04/12 00:52:14;;;;;;;4.03;2.50;;;7.10;99.90;;;;;;5035092;28;20445;-43
2023/04/12 00:54:42;;;;;;;4.27;2.83;;;7.70;99.90;;;;;;5035076;28;20449;-43
2023/04/12 00:57:11;;;;;;;4.90;3.03;;;7.30;99.90;;;;;;5033937;28;20479;-42
2023/04/12 00:59:38;;;;;;;9.10;3.13;;;7.40;99.90;;;;;;5033485;28;20823;-42
2023/04/12 01:02:06;;;;;;;4.43;3.10;;;7.40;99.90;;;;;;5035178;28;20418;-43
2023/04/12 01:04:36;;;;;;;4.57;3.00;;;7.60;99.90;;;;;;5035255;28;20454;-43
2023/04/12 01:07:14;;;;;;;4.47;3.47;;;7.60;99.90;;;;;;5034898;28;20960;-44
2023/04/12 01:09:56;;;;;;;9.83;2.90;;;7.40;99.90;;;;;;5037904;28;20478;-42
2023/04/12 01:12:32;;;;;;;9.73;3.00;;;7.50;99.90;;;;;;5038751;28;20435;-42
2023/04/12 01:15:06;;;;;;;8.70;2.97;;;7.30;99.90;;;;;;5037323;28;20438;-42
2023/04/12 01:17:38;;;;;;;10.97;7.70;;;7.10;99.90;;;;;;5037250;28;20472;-43
2023/04/12 01:20:12;;;;;;;5.77;3.10;;;7.40;99.90;;;;;;5037305;28;20442;-42
2023/04/12 01:23:03;;;;;;;7.07;3.27;;;7.40;99.90;;;;;;5036514;28;20446;-42
2023/04/12 01:25:38;;;;;;;4.80;2.60;;;7.20;99.90;;;;;;5037078;28;20498;-42
2023/04/12 01:28:09;;;;;;;6.20;4.00;;;7.50;99.90;;;;;;5037124;28;20421;-42
2023/04/12 01:30:37;;;;;;;6.57;3.97;;;6.60;99.90;;;;;;5035881;28;20452;-44
2023/04/12 01:33:07;;;;;;;5.53;3.00;;;7.30;99.90;;;;;;5036446;28;20458;-43
2023/04/12 01:35:38;;;;;;;6.57;3.60;;;7.40;99.90;;;;;;5036851;28;20872;-41
2023/04/12 01:38:06;;;;;;;5.10;2.80;;;7.20;99.90;;;;;;5037684;28;20473;-43
2023/04/12 01:40:33;;;;;;;9.73;4.03;;;7.30;99.90;;;;;;5038195;28;20419;-43
2023/04/12 01:43:09;;;;;;;7.53;3.70;;;6.90;99.90;;;;;;5036693;28;20458;-43
2023/04/12 01:45:36;;;;;;;7.27;3.40;;;6.90;99.90;;;;;;5037880;28;20437;-41
2023/04/12 01:48:06;;;;;;;5.00;3.70;;;7.30;99.90;;;;;;5038297;28;20434;-44
2023/04/12 01:50:41;;;;;;;6.50;3.57;;;7.10;99.90;;;;;;5037161;28;20454;-42
2023/04/12 01:53:13;;;;;;;6.60;4.30;;;7.20;99.90;;;;;;5035867;28;20457;-44
2023/04/12 01:55:44;;;;;;;7.40;3.70;;;6.90;99.90;;;;;;5036709;28;20804;-43
2023/04/12 01:58:14;;;;;;;5.20;3.67;;;6.90;99.90;;;;;;5063922;22;20497;-44
2023/04/12 02:00:43;;;;;;;8.90;4.27;;;6.90;99.90;;;;;;5052420;28;20805;-44
2023/04/12 02:03:11;;;;;;;8.10;4.80;;;7.00;99.90;;;;;;5054100;28;20419;-43
2023/04/12 02:05:38;;;;;;;6.73;3.87;;;6.50;99.90;;;;;;5052532;28;21197;-44
2023/04/12 02:08:05;;;;;;;6.77;3.50;;;6.80;99.90;;;;;;5053278;28;20510;-44
2023/04/12 02:10:35;;;;;;;10.53;4.30;;;6.70;99.90;;;;;;5052468;28;20444;-43
2023/04/12 02:13:02;;;;;;;6.97;3.97;;;6.80;99.90;;;;;;5052096;28;20456;-43
2023/04/12 02:15:32;;;;;;;7.40;4.03;;;6.80;99.90;;;;;;5052077;28;20448;-42
2023/04/12 02:18:00;;;;;;;12.53;4.40;;;6.80;99.90;;;;;;5051766;28;20442;-44
2023/04/12 02:20:28;;;;;;;11.50;4.70;;;6.70;99.90;;;;;;5050749;28;20449;-45
2023/04/12 02:22:55;;;;;;;8.70;4.50;;;6.70;99.90;;;;;;5051892;28;20526;-45
2023/04/12 02:25:21;;;;;;;8.20;4.73;;;6.30;99.90;;;;;;5053193;28;20748;-44
2023/04/12 02:27:48;;;;;;;6.77;4.43;;;6.80;99.90;;;;;;5051989;28;20470;-43
2023/04/12 02:30:15;;;;;;;12.53;4.60;;;6.90;99.90;;;;;;5052640;28;20476;-44
2023/04/12 02:32:47;;;;;;;7.47;4.37;;;7.00;99.90;;;;;;5051650;28;21010;-44
2023/04/12 02:35:21;;;;;;;6.07;4.90;;;6.70;99.90;;;;;;5051856;28;20506;-43
2023/04/12 02:37:53;;;;;;;8.83;5.00;;;6.50;99.90;;;;;;5051565;28;20848;-44
2023/04/12 02:40:22;;;;;;;6.77;4.83;;;7.20;99.90;;;;;;5051357;28;20435;-42
2023/04/12 02:42:48;;;;;;;9.43;5.13;;;6.70;99.90;;;;;;5051660;28;20465;-43
2023/04/12 02:45:15;;;;;;;7.13;5.50;;;6.70;99.90;;;;;;5051422;28;20459;-45
2023/04/12 02:47:42;;;;;;;8.83;4.57;;;7.10;99.90;;;;;;5051414;28;20436;-43
2023/04/12 02:50:12;;;;;;;6.07;4.20;;;6.20;99.90;;;;;;5051492;28;20505;-43
2023/04/12 02:52:49;;;;;;;8.97;4.53;;;6.50;99.90;;;;;;5052274;28;20502;-45
2023/04/12 02:55:16;;;;;;;6.10;4.07;;;6.60;99.90;;;;;;5052850;28;20422;-43
2023/04/12 02:57:44;;;;;;;6.30;4.40;;;6.80;99.90;;;;;;5052376;28;20450;-45
2023/04/12 03:00:12;;;;;;;7.60;3.83;;;6.10;99.90;;;;;;5052279;28;20469;-42
2023/04/12 03:02:42;;;;;;;10.43;4.33;;;6.60;99.90;;;;;;5052708;28;20969;-43
2023/04/12 03:05:23;;;;;;;7.53;4.50;;;6.90;99.90;;;;;;5052998;28;20429;-44
2023/04/12 03:07:50;;;;;;;6.57;4.10;;;6.50;99.90;;;;;;5051791;28;21047;-43
2023/04/12 03:10:21;;;;;;;17.10;4.93;;;6.80;99.90;;;;;;5050717;28;20498;-43
2023/04/12 03:12:54;;;;;;;5.50;4.80;;;6.70;99.90;;;;;;5051094;28;20800;-44
2023/04/12 03:15:22;;;;;;;7.80;4.97;;;6.70;99.90;;;;;;5052083;28;20451;-43
2023/04/12 03:17:51;;;;;;;9.83;4.70;;;6.70;99.90;;;;;;5052070;28;20430;-43
2023/04/12 03:20:24;;;;;;;12.83;4.73;;;6.50;99.90;;;;;;5050639;28;20430;-43
2023/04/12 03:22:59;;;;;;;10.90;5.07;;;6.60;99.90;;;;;;5050954;28;20448;-43
2023/04/12 03:25:27;;;;;;;6.70;5.03;;;6.30;99.90;;;;;;5050943;28;20428;-44
2023/04/12 03:27:58;;;;;;;6.33;4.57;;;6.60;99.90;;;;;;5050896;28;21024;-43
2023/04/12 03:30:35;;;;;;;6.77;4.90;;;6.50;99.90;;;;;;5050464;28;20462;-44
2023/04/12 03:33:02;;;;;;;12.83;5.83;;;6.50;99.90;;;;;;5050653;28;20789;-43
2023/04/12 03:35:30;;;;;;;12.00;5.40;;;6.60;99.90;;;;;;5050781;28;20853;-44
2023/04/12 03:37:57;;;;;;;8.50;4.97;;;6.40;99.90;;;;;;5050476;28;20479;-44
2023/04/12 03:40:24;;;;;;;6.00;4.20;;;6.40;99.90;;;;;;5050407;28;20423;-43
2023/04/12 03:42:57;;;;;;;12.77;5.50;;;6.90;99.90;;;;;;5050676;28;20444;-44
2023/04/12 03:45:24;;;;;;;9.40;5.23;;;6.40;99.90;;;;;;5050418;28;20463;-44
2023/04/12 03:47:54;;;;;;;11.63;5.70;;;6.50;99.90;;;;;;5050645;28;20443;-44
2023/04/12 03:50:22;;;;;;;7.30;4.77;;;6.40;99.90;;;;;;5050213;28;20449;-44
2023/04/12 03:52:56;;;;;;;8.70;4.70;;;6.50;99.90;;;;;;5050740;28;20447;-42
2023/04/12 03:55:28;;;;;;;10.13;5.50;;;6.20;99.90;;;;;;5050589;28;20552;-44
2023/04/12 03:57:56;;;;;;;5.20;4.60;;;6.50;99.90;;;;;;5050390;28;20538;-43
2023/04/12 04:00:26;;;;;;;12.53;5.43;;;6.40;99.90;;;;;;5050177;28;20785;-44
2023/04/12 04:03:03;;;;;;;8.77;5.60;;;6.40;99.90;;;;;;5050620;28;20476;-44
2023/04/12 04:05:33;;;;;;;12.20;6.00;;;6.30;99.90;;;;;;5050961;28;20929;-44
2023/04/12 04:08:01;;;;;;;7.90;6.10;;;6.30;99.90;;;;;;5050328;28;20540;-45
2023/04/12 04:10:33;;;;;;;8.70;5.60;;;6.80;99.90;;;;;;5050198;28;20475;-45
2023/04/12 04:12:59;;;;;;;9.30;5.27;;;5.80;99.90;;;;;;5051517;28;20440;-44
2023/04/12 04:15:27;;;;;;;14.50;6.60;;;6.40;99.90;;;;;;5050560;28;20523;-43
2023/04/12 04:17:54;;;;;;;9.43;5.73;;;6.20;99.90;;;;;;5050226;28;20564;-44
2023/04/12 04:20:21;;;;;;;8.17;5.73;;;6.30;99.90;;;;;;5050427;28;20784;-43
2023/04/12 04:22:52;;;;;;;10.53;6.70;;;5.90;99.90;;;;;;5050138;28;20421;-44
2023/04/12 04:25:28;;;;;;;9.63;6.00;;;6.30;99.90;;;;;;5051533;28;20466;-47
2023/04/12 04:27:55;;;;;;;10.53;5.73;;;6.10;99.90;;;;;;5050136;28;20454;-43
2023/04/12 04:30:23;;;;;;;10.27;7.60;;;6.20;99.90;;;;;;5050043;28;20484;-43
2023/04/12 04:32:50;;;;;;;22.87;6.13;;;6.40;99.90;;;;;;5050721;28;20419;-44
2023/04/12 04:35:20;;;;;;;12.00;6.43;;;6.00;99.90;;;;;;5050694;28;20456;-44
2023/04/12 04:38:00;;;;;;;10.37;7.27;;;6.10;99.90;;;;;;5050282;28;20472;-43
2023/04/12 04:40:28;;;;;;;9.13;6.17;;;6.00;99.90;;;;;;5050249;28;20447;-44
2023/04/12 04:42:56;;;;;;;14.90;6.90;;;6.40;99.90;;;;;;5052203;28;20429;-43
2023/04/12 04:45:26;;;;;;;9.40;6.00;;;6.30;99.90;;;;;;5053836;28;20423;-44
2023/04/12 04:47:53;;;;;;;8.47;6.10;;;6.10;99.90;;;;;;5054013;28;20437;-43
2023/04/12 04:50:21;;;;;;;14.00;6.40;;;6.30;99.90;;;;;;5054324;28;20475;-44
2023/04/12 04:52:49;;;;;;;8.53;5.30;;;6.20;99.90;;;;;;5054984;28;20454;-45
2023/04/12 04:55:17;;;;;;;6.57;4.33;;;6.30;99.90;;;;;;5054143;28;20426;-45
2023/04/12 04:57:47;;;;;;;7.20;5.73;;;6.30;99.90;;;;;;5053085;28;20987;-44
2023/04/12 05:00:15;;;;;;;11.90;5.80;;;6.10;99.90;;;;;;5053002;28;20422;-44
2023/04/12 05:02:45;;;;;;;7.40;5.50;;;6.50;99.90;;;;;;5053421;28;21011;-43
2023/04/12 05:05:16;;;;;;;6.37;5.50;;;6.60;99.90;;;;;;5053389;28;20460;-43
2023/04/12 05:07:44;;;;;;;10.87;6.33;;;6.30;99.90;;;;;;5053227;28;20476;-43
2023/04/12 05:10:11;;;;;;;8.10;6.33;;;6.70;99.90;;;;;;5052784;28;20537;-42
2023/04/12 05:12:41;;;;;;;8.70;5.43;;;6.60;99.90;;;;;;5053183;28;20889;-44
2023/04/12 05:15:10;;;;;;;10.17;6.07;;;6.50;99.90;;;;;;5052858;28;20977;-44
2023/04/12 05:17:37;;;;;;;7.93;5.23;;;6.50;99.90;;;;;;5052919;28;20570;-44
2023/04/12 05:20:06;;;;;;;7.90;5.20;;;6.60;99.90;;;;;;5053811;28;20955;-43
2023/04/12 05:22:33;;;;;;;8.80;5.00;;;6.60;99.90;;;;;;5052789;28;20456;-45
2023/04/12 05:25:00;;;;;;;12.00;5.30;;;6.60;99.90;;;;;;5053120;28;20791;-44
2023/04/12 05:27:30;;;;;;;8.17;5.33;;;6.90;99.90;;;;;;5053884;28;20967;-43
2023/04/12 05:29:58;;;;;;;7.10;5.00;;;6.40;99.90;;;;;;5052587;28;20977;-44
2023/04/12 05:32:27;;;;;;;15.30;6.20;;;6.90;99.90;;;;;;5052960;28;20452;-44
2023/04/12 05:34:54;;;;;;;7.23;5.13;;;7.50;99.90;;;;;;5052954;28;20466;-44
2023/04/12 05:37:22;;;;;;;8.20;4.83;;;7.00;99.90;;;;;;5052947;28;20445;-44
2023/04/12 05:39:49;;;;;;;8.27;5.70;;;7.30;99.90;;;;;;5053604;28;20768;-44
2023/04/12 05:42:18;;;;;;;10.43;5.60;;;7.40;99.90;;;;;;5052735;28;20473;-43
2023/04/12 05:44:47;;;;;;;5.97;5.27;;;7.00;99.90;;;;;;5054752;28;20959;-43
2023/04/12 05:47:14;;;;;;;11.37;6.70;;;7.30;99.90;;;;;;5054010;28;20465;-43
2023/04/12 05:49:42;;;;;;;9.43;6.80;;;7.90;99.90;;;;;;5053539;28;20957;-44
2023/04/12 05:52:10;;;;;;;11.27;5.70;;;7.70;99.90;;;;;;5053839;28;20447;-43
2023/04/12 05:54:37;;;;;;;10.97;5.00;;;8.10;99.90;;;;;;5054833;28;20472;-44
2023/04/12 05:57:05;;;;;;;7.87;5.50;;;8.10;99.90;;;;;;5053906;28;20539;-44
2023/04/12 05:59:32;;;;;;;5.80;5.10;;;8.10;99.90;;;;;;5054960;28;20516;-43
2023/04/12 06:02:01;;;;;;;19.87;6.13;;;8.50;99.90;;;;;;5053570;28;20453;-44
2023/04/12 06:04:29;;;;;;;9.53;5.17;;;8.60;99.90;;;;;;5053684;28;20527;-42
2023/04/12 06:06:56;;;;;;;9.80;5.23;;;8.60;99.90;;;;;;5052844;28;20466;-44
2023/04/12 06:09:23;;;;;;;10.80;5.37;;;8.60;99.90;;;;;;5052003;28;20468;-44
2023/04/12 06:11:51;;;;;;;9.10;5.40;;;9.10;99.90;;;;;;5052447;28;20931;-44
2023/04/12 06:14:17;;;;;;;12.40;6.30;;;8.80;99.90;;;;;;5055232;28;20493;-44
2023/04/12 06:16:45;;;;;;;15.20;7.30;;;9.00;99.90;;;;;;5054975;28;20513;-47
2023/04/12 06:19:13;;;;;;;8.43;4.90;;;9.00;99.90;;;;;;5054961;28;20452;-45
2023/04/12 06:21:40;;;;;;;12.10;5.60;;;8.30;99.90;;;;;;5053346;28;20450;-50
2023/04/12 06:24:10;;;;;;;8.20;5.07;;;9.50;99.90;;;;;;5053761;28;20516;-45
2023/04/12 06:26:37;;;;;;;7.00;5.30;;;9.00;99.90;;;;;;5055300;28;20896;-45
2023/04/12 06:29:04;;;;;;;8.23;4.70;;;8.90;99.90;;;;;;5053129;28;20436;-43
2023/04/12 06:31:31;;;;;;;9.93;4.50;;;9.30;99.90;;;;;;5053568;28;20482;-44
2023/04/12 06:33:57;;;;;;;10.83;5.00;;;9.30;99.90;;;;;;5053860;28;20455;-44
2023/04/12 06:36:24;;;;;;;10.10;5.07;;;9.80;99.90;;;;;;5054023;28;20520;-45
2023/04/12 06:38:51;;;;;;;7.43;4.80;;;9.30;99.90;;;;;;5054561;28;20919;-46
2023/04/12 06:41:19;;;;;;;6.73;4.90;;;9.30;99.90;;;;;;5053629;28;20775;-43
2023/04/12 06:43:45;;;;;;;8.00;4.67;;;9.40;99.90;;;;;;5053667;28;20438;-44
2023/04/12 06:46:14;;;;;;;14.97;6.27;;;9.50;99.90;;;;;;5052689;28;20783;-45
2023/04/12 06:48:41;;;;;;;7.60;5.43;;;9.40;99.90;;;;;;5052355;28;20446;-42
2023/04/12 06:51:07;;;;;;;13.70;6.90;;;9.60;99.90;;;;;;5051571;28;20470;-45
2023/04/12 06:53:37;;;;;;;6.70;4.93;;;10.00;99.90;;;;;;5051231;28;20461;-43
2023/04/12 06:56:04;;;;;;;9.77;5.03;;;9.70;99.90;;;;;;5052377;28;20417;-44
2023/04/12 06:58:32;;;;;;;8.37;5.83;;;9.60;99.90;;;;;;5052276;28;20439;-43
2023/04/12 07:01:04;;;;;;;8.40;4.80;;;9.60;99.90;;;;;;5052719;28;20790;-46
2023/04/12 07:03:32;;;;;;;12.03;5.33;;;9.90;99.90;;;;;;5052207;28;20434;-46
2023/04/12 07:05:59;;;;;;;11.10;4.20;;;10.20;99.90;;;;;;5051481;28;20462;-42
2023/04/12 07:08:26;;;;;;;5.20;3.70;;;9.80;99.90;;;;;;5051962;28;20455;-44
2023/04/12 07:10:53;;;;;;;8.60;4.10;;;9.80;99.90;;;;;;5052283;28;20544;-44
2023/04/12 07:13:21;;;;;;;6.87;3.97;;;10.00;99.90;;;;;;5052296;28;20442;-44
2023/04/12 07:15:50;;;;;;;9.30;4.53;;;9.60;99.90;;;;;;5052132;28;20443;-45
2023/04/12 07:18:17;;;;;;;8.83;5.47;;;9.60;99.90;;;;;;5051735;28;20541;-45
2023/04/12 07:20:43;;;;;;;14.93;4.50;;;10.20;99.90;;;;;;5052145;28;20420;-42
2023/04/12 07:23:10;;;;;;;7.43;5.30;;;10.00;99.90;;;;;;5052003;28;20434;-45
2023/04/12 07:25:37;;;;;;;5.70;4.37;;;10.10;99.90;;;;;;5050564;28;21029;-44
2023/04/12 07:28:04;;;;;;;6.80;3.50;;;10.10;99.90;;;;;;5051746;28;20485;-45
2023/04/12 07:30:31;;;;;;;8.80;4.20;;;10.20;99.90;;;;;;5051599;28;20470;-44
2023/04/12 07:32:59;;;;;;;7.70;4.50;;;10.10;99.90;;;;;;5051749;28;20573;-45
2023/04/12 07:35:26;;;;;;;5.90;3.60;;;10.20;99.90;;;;;;5051798;28;20940;-44
2023/04/12 07:37:53;;;;;;;5.03;2.90;;;10.30;99.90;;;;;;5051777;28;20963;-43
2023/04/12 07:40:20;;;;;;;4.90;2.73;;;9.60;99.90;;;;;;5051655;28;20438;-44
2023/04/12 07:42:47;;;;;;;4.80;2.60;;;9.90;99.90;;;;;;5051968;28;20427;-45
2023/04/12 07:45:13;;;;;;;4.20;2.43;;;9.80;99.90;;;;;;5051934;28;20424;-45
2023/04/12 07:47:40;;;;;;;5.33;2.50;;;9.90;99.80;;;;;;5052120;28;20455;-44
2023/04/12 07:50:09;;;;;;;4.47;2.30;;;10.70;99.70;;;;;;5051959;28;20434;-45
2023/04/12 07:52:35;;;;;;;6.07;2.90;;;10.40;99.30;;;;;;5052117;28;20792;-44
2023/04/12 07:55:02;;;;;;;4.93;2.63;;;10.40;99.40;;;;;;5052216;28;20434;-45
2023/04/12 07:57:30;;;;;;;4.33;2.50;;;10.20;99.20;;;;;;5052050;28;20837;-44
2023/04/12 07:59:56;;;;;;;7.00;2.30;;;10.70;98.80;;;;;;5051240;28;20475;-42
2023/04/12 08:02:24;;;;;;;8.97;3.80;;;10.20;98.90;;;;;;5051753;28;20770;-45
2023/04/12 08:04:51;;;;;;;6.10;2.63;;;9.90;99.10;;;;;;5052360;28;20529;-44
2023/04/12 08:07:20;;;;;;;3.87;2.60;;;10.50;98.40;;;;;;5051320;28;20457;-45
2023/04/12 08:09:48;;;;;;;6.43;2.47;;;10.60;98.50;;;;;;5051005;28;20418;-43
2023/04/12 08:12:15;;;;;;;6.03;2.47;;;10.40;97.80;;;;;;5051462;28;20474;-43
2023/04/12 08:14:42;;;;;;;4.20;2.20;;;10.60;98.10;;;;;;5051504;28;21016;-45
2023/04/12 08:17:08;;;;;;;5.03;2.20;;;11.20;98.20;;;;;;5053873;28;20470;-46
2023/04/12 08:19:35;;;;;;;4.93;2.13;;;10.30;97.60;;;;;;5055143;28;20478;-44
2023/04/12 08:22:03;;;;;;;11.53;2.30;;;10.80;97.60;;;;;;5055287;28;20409;-44
2023/04/12 08:24:31;;;;;;;5.83;2.33;;;10.90;97.40;;;;;;5055226;28;20967;-45
2023/04/12 08:26:58;;;;;;;4.70;2.73;;;10.90;96.80;;;;;;5055173;28;20452;-45
2023/04/12 08:29:25;;;;;;;8.23;1.93;;;10.80;96.10;;;;;;5054748;28;20443;-43
2023/04/12 08:31:52;;;;;;;4.07;1.93;;;11.10;96.50;;;;;;5055307;28;20450;-44
2023/04/12 08:34:21;;;;;;;3.67;1.87;;;10.80;96.30;;;;;;5055002;28;20430;-43
2023/04/12 08:36:47;;;;;;;4.97;2.00;;;11.50;95.90;;;;;;5054693;28;20483;-45
2023/04/12 08:39:14;;;;;;;4.70;1.80;;;11.20;95.50;;;;;;5053141;28;20481;-45
2023/04/12 08:41:43;;;;;;;6.47;2.70;;;11.60;95.70;;;;;;5055111;28;20439;-45
2023/04/12 08:44:11;;;;;;;5.17;1.67;;;11.20;94.80;;;;;;5055137;28;20410;-44
2023/04/12 08:46:37;;;;;;;3.83;2.20;;;11.10;94.10;;;;;;5055466;28;20459;-45
2023/04/12 08:49:04;;;;;;;3.97;2.20;;;11.10;93.80;;;;;;5054934;28;20432;-43
2023/04/12 08:51:33;;;;;;;4.20;1.90;;;11.30;93.60;;;;;;5055423;28;20984;-44
2023/04/12 08:54:00;;;;;;;7.17;1.80;;;11.50;93.30;;;;;;5056109;28;20409;-45
2023/04/12 08:56:27;;;;;;;4.60;1.63;;;11.40;93.00;;;;;;5055658;28;20467;-44
2023/04/12 08:58:55;;;;;;;4.37;2.00;;;11.50;92.90;;;;;;5055379;28;20429;-45
2023/04/12 09:01:22;;;;;;;4.33;1.80;;;11.40;92.40;;;;;;5054819;28;20428;-45
2023/04/12 09:03:48;;;;;;;3.37;1.53;;;11.20;91.80;;;;;;5054383;28;20443;-45
2023/04/12 09:06:15;;;;;;;4.20;2.03;;;11.60;91.60;;;;;;5054487;28;20940;-44
2023/04/12 09:08:52;;;;;;;6.17;2.53;;;11.70;91.30;;;;;;5054016;28;20998;-44
2023/04/12 09:11:23;;;;;;;4.90;1.77;;;11.50;91.20;;;;;;5054216;28;20984;-45
2023/04/12 09:13:50;;;;;;;7.00;1.90;;;11.60;90.80;;;;;;5054417;28;20494;-45
2023/04/12 09:16:20;;;;;;;12.63;2.37;;;11.70;90.70;;;;;;5052999;28;20976;-46
2023/04/12 09:18:50;;;;;;;5.40;2.00;;;11.80;90.20;;;;;;5054022;28;20483;-43
2023/04/12 09:21:18;;;;;;;5.00;1.70;;;11.60;89.70;;;;;;5054127;28;20440;-45
2023/04/12 09:23:44;;;;;;;5.37;2.10;;;11.90;89.80;;;;;;5054575;28;20435;-44
2023/04/12 09:26:27;;;;;;;7.27;1.67;;;11.70;88.80;;;;;;5054079;28;20441;-44
2023/04/12 09:28:54;;;;;;;5.20;1.50;;;12.00;88.10;;;;;;5053218;28;20433;-44
2023/04/12 09:31:21;;;;;;;2.90;1.57;;;11.70;87.70;;;;;;5053782;28;21046;-44
2023/04/12 09:33:48;;;;;;;3.93;1.80;;;11.50;86.80;;;;;;5054037;28;20443;-43
2023/04/12 09:36:16;;;;;;;4.43;1.60;;;12.50;85.70;;;;;;5053711;28;20933;-45
2023/04/12 09:38:58;;;;;;;2.43;1.53;;;11.60;83.90;;;;;;5053679;28;21004;-45
2023/04/12 09:41:27;;;;;;;4.80;2.17;;;12.30;84.80;;;;;;5054052;28;20456;-46
2023/04/12 09:43:54;;;;;;;6.47;2.07;;;12.20;82.10;;;;;;5054169;28;20491;-43
2023/04/12 09:46:22;;;;;;;4.13;2.10;;;12.50;81.20;;;;;;5052417;28;20474;-44
2023/04/12 09:48:50;;;;;;;5.73;2.20;;;12.40;81.50;;;;;;5053886;28;20513;-43
2023/04/12 09:51:25;;;;;;;6.97;2.27;;;12.50;79.40;;;;;;5052097;28;21077;-44
2023/04/12 09:53:52;;;;;;;4.20;2.07;;;12.50;77.40;;;;;;5052375;28;20448;-44
2023/04/12 09:56:22;;;;;;;4.60;1.70;;;12.40;77.40;;;;;;5053421;28;20437;-46
2023/04/12 09:58:51;;;;;;;3.40;2.00;;;12.40;77.50;;;;;;5053088;28;20431;-44
2023/04/12 10:01:18;;;;;;;4.10;2.23;;;13.00;77.90;;;;;;5053266;28;20437;-46
2023/04/12 10:03:47;;;;;;;2.60;1.80;;;12.40;76.50;;;;;;5053346;28;20811;-44
2023/04/12 10:06:14;;;;;;;7.17;2.77;;;13.10;78.40;;;;;;5053174;28;20539;-45
2023/04/12 10:08:42;;;;;;;7.60;2.40;;;12.50;77.50;;;;;;5052883;28;20438;-44
2023/04/12 10:11:09;;;;;;;6.00;2.43;;;12.70;77.10;;;;;;5053147;28;20808;-44
2023/04/12 10:13:36;;;;;;;7.63;2.10;;;12.50;75.60;;;;;;5051954;28;20894;-44
2023/04/12 10:16:05;;;;;;;6.00;2.20;;;13.20;76.00;;;;;;5053155;28;20443;-43
2023/04/12 10:18:35;;;;;;;4.93;1.93;;;12.70;75.10;;;;;;5052482;28;20774;-45
2023/04/12 10:21:05;;;;;;;7.77;2.00;;;12.80;75.40;;;;;;5053519;28;20412;-45
2023/04/12 10:23:32;;;;;;;3.90;1.60;;;12.80;75.60;;;;;;5053303;28;20433;-45
2023/04/12 10:25:59;;;;;;;3.00;1.70;;;12.80;75.80;;;;;;5053052;28;20911;-44
2023/04/12 10:28:27;;;;;;;7.27;2.50;;;13.00;75.80;;;;;;5051555;28;20537;-45
2023/04/12 10:30:56;;;;;;;5.43;1.93;;;12.90;74.80;;;;;;5053540;28;20443;-44
2023/04/12 10:33:26;;;;;;;4.40;2.13;;;12.30;73.40;;;;;;5054161;28;20792;-45
2023/04/12 10:36:02;;;;;;;10.00;2.50;;;13.00;74.90;;;;;;5053404;28;20438;-44
2023/04/12 10:38:36;;;;;;;3.00;1.80;;;12.90;74.40;;;;;;5053347;28;20403;-44
2023/04/12 10:41:16;;;;;;;3.47;1.90;;;12.90;73.80;;;;;;5052133;28;20415;-45
2023/04/12 10:43:44;;;;;;;6.97;1.90;;;12.90;73.50;;;;;;5053267;28;20444;-44
2023/04/12 10:46:48;;;;;;;4.27;1.83;;;13.10;73.30;;;;;;5052719;28;20445;-44
2023/04/12 10:49:15;;;;;;;2.93;1.80;;;13.00;71.70;;;;;;5049382;28;20450;-45
2023/04/12 10:52:12;;;;;;;3.67;1.80;;;13.20;71.90;;;;;;5050853;28;20557;-43
2023/04/12 10:54:40;;;;;;;7.93;3.20;;;13.30;71.80;;;;;;5052245;28;20838;-45
2023/04/12 10:57:43;;;;;;;5.30;1.93;;;13.10;72.00;;;;;;5051031;28;20844;-44
2023/04/12 11:00:10;;;;;;;4.10;1.60;;;13.30;70.70;;;;;;5048878;28;20466;-44
2023/04/12 11:03:06;;;;;;;5.67;2.30;;;13.30;71.30;;;;;;5051093;28;20445;-46
2023/04/12 11:05:57;;;;;;;9.27;2.17;;;13.30;71.00;;;;;;5051954;28;20447;-44
2023/04/12 11:08:50;;;;;;;7.00;2.50;;;13.30;70.00;;;;;;5051693;28;20838;-44
2023/04/12 11:11:26;;;;;;;12.93;2.00;;;13.70;70.40;;;;;;5052258;28;20498;-44
2023/04/12 11:13:55;;;;;;;4.00;1.77;;;13.80;69.70;;;;;;5052217;28;20437;-45
2023/04/12 11:16:22;;;;;;;7.20;2.73;;;13.70;69.40;;;;;;5052760;28;20465;-44
2023/04/12 11:18:49;;;;;;;7.80;1.83;;;13.80;69.90;;;;;;5052979;28;20419;-43
2023/04/12 11:21:16;;;;;;;6.50;2.00;;;13.40;69.20;;;;;;5052633;28;20438;-46
2023/04/12 11:23:43;;;;;;;8.83;1.80;;;13.80;69.70;;;;;;5052725;28;20433;-46
2023/04/12 11:26:10;;;;;;;5.47;2.10;;;13.50;70.00;;;;;;5052518;28;20442;-46
2023/04/12 11:28:38;;;;;;;6.33;2.40;;;13.60;68.90;;;;;;5052100;28;20451;-45
2023/04/12 11:31:06;;;;;;;13.40;2.47;;;14.00;68.90;;;;;;5052900;28;20805;-44
2023/04/12 11:33:34;;;;;;;4.17;2.00;;;13.50;69.10;;;;;;5052815;28;20500;-45
2023/04/12 11:36:04;;;;;;;6.70;3.07;;;13.90;68.40;;;;;;5033597;28;20508;-44
2023/04/12 11:38:31;;;;;;;4.33;1.73;;;13.20;68.00;;;;;;5033012;28;20467;-45
2023/04/12 11:40:58;;;;;;;5.20;2.50;;;14.20;69.20;;;;;;5033030;28;20442;-45
2023/04/12 11:43:25;;;;;;;6.80;2.60;;;14.10;69.40;;;;;;5033805;28;20432;-43
2023/04/12 11:45:58;;;;;;;6.17;2.57;;;14.20;69.40;;;;;;5033745;28;20447;-44
2023/04/12 11:48:25;;;;;;;5.50;2.60;;;14.10;67.90;;;;;;5043811;28;20494;-45
2023/04/12 11:50:52;;;;;;;4.77;2.30;;;14.10;68.00;;;;;;5038045;28;20446;-45
2023/04/12 11:53:19;;;;;;;6.80;2.43;;;14.40;67.20;;;;;;5058432;28;20477;-44
2023/04/12 11:55:48;;;;;;;5.27;2.20;;;14.00;67.40;;;;;;5048086;28;20439;-45
2023/04/12 11:58:15;;;;;;;13.90;2.20;;;14.50;67.50;;;;;;5038126;28;20911;-43
2023/04/12 12:00:43;;;;;;;4.80;1.87;;;13.60;67.00;;;;;;5040362;28;20440;-44
2023/04/12 12:03:11;;;;;;;5.03;1.80;;;14.30;67.40;;;;;;5058272;28;20438;-44
2023/04/12 12:05:40;;;;;;;5.97;1.93;;;14.30;65.90;;;;;;5058319;28;20434;-45
2023/04/12 12:08:07;;;;;;;8.73;4.13;;;14.50;64.50;;;;;;5057667;28;20450;-45
2023/04/12 12:10:34;;;;;;;5.87;2.63;;;14.40;64.30;;;;;;5058072;28;20930;-43
2023/04/12 12:13:01;;;;;;;6.27;1.60;;;14.80;64.20;;;;;;5058395;28;20485;-46
2023/04/12 12:15:29;;;;;;;5.53;2.23;;;14.90;64.50;;;;;;5058088;28;20442;-46
2023/04/12 12:17:56;;;;;;;3.10;1.83;;;15.20;64.70;;;;;;5057929;28;20478;-44
2023/04/12 12:20:25;;;;;;;6.93;1.90;;;15.40;63.90;;;;;;5057778;28;20963;-45
2023/04/12 12:22:52;;;;;;;4.33;1.40;;;15.60;61.70;;;;;;5058136;28;20879;-44
2023/04/12 12:25:19;;;;;;;7.00;1.80;;;15.30;61.20;;;;;;5057845;28;20501;-45
2023/04/12 12:27:49;;;;;;;4.10;1.77;;;15.30;61.20;;;;;;5056745;28;20566;-45
2023/04/12 12:30:18;;;;;;;6.57;1.93;;;15.90;61.60;;;;;;5057724;28;20437;-45
2023/04/12 12:32:44;;;;;;;5.43;2.13;;;15.50;60.00;;;;;;5058033;28;20866;-46
2023/04/12 12:35:14;;;;;;;6.40;1.60;;;15.80;60.80;;;;;;5057895;28;20471;-45
2023/04/12 12:37:50;;;;;;;8.00;2.30;;;15.90;60.50;;;;;;5058102;28;20975;-44
2023/04/12 12:40:20;;;;;;;7.13;2.27;;;15.50;58.50;;;;;;5058522;28;20847;-45
2023/04/12 12:42:48;;;;;;;5.03;1.67;;;16.20;59.10;;;;;;5058276;28;20442;-43
2023/04/12 12:45:16;;;;;;;4.77;1.60;;;16.20;59.10;;;;;;5058120;28;20848;-44
2023/04/12 12:47:48;;;;;;;5.80;1.77;;;16.20;58.90;;;;;;5057981;28;20470;-44
2023/04/12 12:50:17;;;;;;;5.43;1.67;;;16.60;58.90;;;;;;5058274;28;20861;-44
2023/04/12 12:52:45;;;;;;;6.57;1.77;;;16.80;59.00;;;;;;5058208;28;20486;-44
2023/04/12 12:55:13;;;;;;;3.37;1.57;;;16.40;58.40;;;;;;5057861;28;20844;-44
2023/04/12 12:57:40;;;;;;;4.93;2.53;;;16.60;58.30;;;;;;5057956;28;20474;-46
2023/04/12 13:00:09;;;;;;;2.93;1.50;;;16.50;58.00;;;;;;5057512;28;20497;-45